Latest Weather Observations for Kununurra Airport

IDD60801

Issued at 11:01 am CST Saturday 25 April 2015 (issued every 30 minutes, with the page automatically refreshed every 10 minutes)

About weather observations | Map of weather stations | Latest weather observations for NT | Other Formats
Station Details ID: 002056 Name: KUNUNURRA AERO Lat: -15.78 Lon: 128.71 Height: 44.0 m
Data from the previous 72 hours. | See also: Recent months at Kununurra Airport
Date/Time
CST
Temp
°C
App
Temp
°C
Dew
Point
Rel
Hum
%
Delta-T
°C
Wind Press
QNH
hPa
Press
MSL
hPa
Rain
since 9 am
mm
Dir
 
Spd
km/h
Gust
km/h
Spd
kts
Gust
kts
25/11:00am 32.9 27.8 4.2 16 15.0 ESE 20 32 11 17 1013.0 1012.7 0.0
25/10:30am 32.1 27.0 4.3 17 14.5 SE 20 24 11 13 1013.2 1012.9 0.0
25/10:00am 30.5 26.4 6.1 21 13.0 ESE 17 26 9 14 1013.1 1012.8 0.0
25/09:30am 29.4 26.7 8.8 27 11.4 SSE 13 17 7 9 1013.0 1012.7 0.0
25/09:00am 28.2 26.5 10.0 32 10.2 S 9 13 5 7 1012.8 1012.5 0.0
25/08:30am 26.6 25.1 10.6 36 9.0 SSE 9 11 5 6 1012.5 1012.2 0.0
25/08:00am 23.7 23.3 12.5 49 6.4 SSE 6 9 3 5 1012.5 1012.2 0.0
25/07:30am 20.5 20.6 14.5 68 3.5 S 7 9 4 5 1012.1 1011.8 0.0
25/07:00am 20.3 21.5 16.8 80 2.1 SE 6 7 3 4 1011.7 1011.4 0.0
25/06:30am 19.9 21.9 15.9 78 2.4 CALM 0 0 0 0 1011.6 1011.3 0.0
25/06:00am 20.5 22.5 16.0 75 2.7 CALM 0 0 0 0 1011.5 1011.2 0.0
25/05:30am 20.5 22.3 15.5 73 3.0 CALM 0 0 0 0 1011.5 1011.2 0.0
25/05:00am 20.7 21.2 14.9 69 3.4 E 6 7 3 4 1011.4 1011.1 0.0
25/04:30am 20.7 22.6 15.7 73 3.0 CALM 0 0 0 0 1011.4 1011.1 0.0
25/04:00am 20.8 22.8 16.0 74 2.9 CALM 0 0 0 0 1011.3 1011.0 0.0
25/03:30am 20.7 22.3 14.9 69 3.4 CALM 0 0 0 0 1011.5 1011.2 0.0
25/03:00am 21.2 22.7 14.7 66 3.8 CALM 0 0 0 0 1011.6 1011.3 0.0
25/02:30am 21.4 22.1 15.7 70 3.4 S 6 7 3 4 1011.6 1011.3 0.0
25/02:00am 21.0 23.3 16.7 76 2.6 CALM 0 0 0 0 1011.7 1011.4 0.0
25/01:30am 21.2 23.4 16.6 75 2.8 CALM 0 0 0 0 1011.7 1011.4 0.0
25/01:00am 21.2 23.1 15.7 71 3.3 CALM 0 0 0 0 1011.9 1011.6 0.0
25/12:30am 21.2 22.9 16.1 72 3.1 S 2 6 1 3 1012.0 1011.7 0.0
25/12:00am 21.3 22.3 16.3 73 3.0 S 6 7 3 4 1011.9 1011.6 0.0
 
Date/Time
CST
Temp
°C
App
Temp
°C
Dew
Point
Rel
Hum
%
Delta-T
°C
Wind Press
QNH
hPa
Press
MSL
hPa
Rain
since 9 am
mm
Dir
 
Spd
km/h
Gust
km/h
Spd
kts
Gust
kts
24/11:30pm 21.9 22.3 15.2 65 4.0 S 7 9 4 5 1012.0 1011.7 0.0
24/11:00pm 22.6 23.4 14.7 61 4.7 SE 4 7 2 4 1012.1 1011.8 0.0
24/10:30pm 25.0 25.0 14.2 51 6.4 E 7 9 4 5 1012.1 1011.8 0.0
24/10:00pm 24.6 25.2 13.1 48 6.7 ENE 2 7 1 4 1012.4 1012.1 0.0
24/09:30pm 24.1 25.6 14.7 55 5.6 CALM 0 0 0 0 1012.1 1011.8 0.0
24/09:00pm 25.4 26.5 13.5 47 7.0 CALM 0 0 0 0 1011.8 1011.5 0.0
24/08:30pm 25.8 25.8 13.6 47 7.2 SE 6 7 3 4 1011.2 1010.9 0.0
24/08:00pm 26.7 27.1 12.6 41 8.2 ESE 2 6 1 3 1010.6 1010.3 0.0
24/07:30pm 27.6 27.9 12.3 38 8.9 SSE 2 6 1 3 1010.1 1009.8 0.0
24/07:00pm 30.0 29.3 12.1 33 10.5 S 7 9 4 5 1009.5 1009.2 0.0
24/06:30pm 32.0 29.8 9.2 24 12.9 S 11 13 6 7 1009.3 1009.0 0.0
24/06:00pm 33.5 31.2 7.5 20 14.4 S 9 11 5 6 1009.1 1008.8 0.0
24/05:30pm 34.8 32.3 6.6 17 15.5 S 9 15 5 8 1009.0 1008.7 0.0
24/05:00pm 34.9 31.6 4.4 15 16.2 SSW 11 17 6 9 1008.7 1008.4 0.0
24/04:30pm 35.1 32.2 4.5 15 16.3 SSE 9 13 5 7 1008.7 1008.4 0.0
24/04:00pm 35.5 32.2 4.7 14 16.5 S 11 15 6 8 1009.1 1008.8 0.0
24/03:30pm 35.3 31.0 3.1 13 16.8 S 15 20 8 11 1009.3 1009.0 0.0
24/03:00pm 34.9 30.7 3.7 14 16.4 S 15 20 8 11 1009.5 1009.2 0.0
24/02:30pm 34.5 30.1 2.7 13 16.4 SSE 15 24 8 13 1009.7 1009.4 0.0
24/02:00pm 34.7 30.8 3.6 14 16.3 S 13 22 7 12 1010.0 1009.7 0.0
24/01:30pm 34.5 31.0 3.5 14 16.2 SSE 11 17 6 9 1010.3 1010.0 0.0
24/01:00pm 33.7 29.9 1.9 13 16.1 SSE 11 17 6 9 1010.9 1010.6 0.0
24/12:30pm 33.5 29.2 3.0 14 15.7 SSE 15 24 8 13 1011.5 1011.2 0.0
24/12:00pm 31.9 28.1 3.9 17 14.5 S 13 19 7 10 1011.8 1011.5 0.0
24/11:30am 31.7 27.7 3.1 16 14.6 SSE 13 20 7 11 1012.6 1012.3 0.0
24/11:00am 31.2 27.4 3.8 17 14.1 SSE 13 20 7 11 1013.0 1012.7 0.0
24/10:30am 30.8 26.3 2.1 16 14.3 SSE 15 22 8 12 1013.4 1013.1 0.0
24/10:00am 29.3 25.3 5.0 21 12.6 SSE 15 19 8 10 1013.4 1013.1 0.0
24/09:30am 28.4 24.2 5.6 23 11.9 SSE 17 24 9 13 1013.1 1012.8 0.0
24/09:00am 27.5 24.0 7.0 27 10.9 SSE 15 19 8 10 1012.8 1012.5 0.0
24/08:30am 26.2 23.2 7.9 31 9.8 SSE 13 17 7 9 1012.7 1012.4 0.0
24/08:00am 25.5 22.3 8.4 33 9.2 SSE 15 19 8 10 1012.4 1012.1 0.0
24/07:30am 23.5 21.8 11.2 46 6.9 SSE 11 15 6 8 1012.2 1011.9 0.0
24/07:00am 21.1 22.1 16.3 74 2.9 ESE 6 9 3 5 1011.9 1011.6 0.0
24/06:30am 20.1 22.4 16.8 81 2.0 CALM 0 0 0 0 1011.7 1011.4 0.0
24/06:00am 20.9 23.0 16.3 75 2.8 CALM 0 0 0 0 1011.3 1011.0 0.0
24/05:30am 21.8 23.6 16.4 71 3.3 NW 2 6 1 3 1011.2 1010.9 0.0
24/05:00am 21.7 23.4 16.1 70 3.4 NW 2 7 1 4 1011.1 1010.8 0.0
24/04:30am 21.0 22.8 15.5 71 3.3 CALM 0 0 0 0 1011.1 1010.8 0.0
24/04:00am 21.2 23.0 15.5 70 3.4 CALM 0 0 0 0 1011.0 1010.7 0.0
24/03:30am 21.3 22.8 15.8 71 3.3 SW 2 6 1 3 1011.1 1010.8 0.0
24/03:00am 20.5 20.9 16.4 77 2.5 SW 9 9 5 5 1011.3 1011.0 0.0
24/02:30am 22.1 22.3 14.8 63 4.3 ESE 7 9 4 5 1011.2 1010.9 0.0
24/02:00am 22.2 23.9 18.4 79 2.4 SE 7 13 4 7 1011.6 1011.3 0.0
24/01:30am 21.3 23.0 15.1 67 3.7 CALM 0 0 0 0 1011.7 1011.4 0.0
24/01:00am 21.7 23.5 15.5 68 3.7 CALM 0 6 0 3 1011.7 1011.4 0.0
24/12:30am 21.9 22.8 15.0 65 4.1 NE 4 6 2 3 1011.8 1011.5 0.0
24/12:00am 22.7 24.5 15.5 64 4.3 CALM 0 0 0 0 1011.8 1011.5 0.0
 
Date/Time
CST
Temp
°C
App
Temp
°C
Dew
Point
Rel
Hum
%
Delta-T
°C
Wind Press
QNH
hPa
Press
MSL
hPa
Rain
since 9 am
mm
Dir
 
Spd
km/h
Gust
km/h
Spd
kts
Gust
kts
23/11:30pm 22.9 23.9 15.4 62 4.5 NE 4 6 2 3 1011.6 1011.3 0.0
23/11:00pm 23.6 23.8 14.7 57 5.3 NE 7 9 4 5 1011.6 1011.3 0.0
23/10:30pm 23.7 24.0 14.6 56 5.4 N 6 11 3 6 1011.8 1011.5 0.0
23/10:00pm 24.6 25.4 14.7 54 5.9 ENE 4 6 2 3 1011.8 1011.5 0.0
23/09:30pm 25.3 25.7 14.8 52 6.3 ENE 6 6 3 3 1011.8 1011.5 0.0
23/09:00pm 25.8 27.2 14.4 49 6.8 CALM 0 0 0 0 1011.6 1011.3 0.0
23/08:30pm 26.4 26.2 13.5 45 7.6 WNW 7 7 4 4 1011.4 1011.1 0.0
23/08:00pm 26.7 26.0 13.3 43 7.9 W 9 9 5 5 1010.9 1010.6 0.0
23/07:30pm 26.6 26.5 13.2 43 7.9 NNW 6 9 3 5 1010.6 1010.3 0.0
23/07:00pm 28.5 27.3 12.9 38 9.2 NNE 11 13 6 7 1010.2 1009.9 0.0
23/06:30pm 30.2 27.9 10.4 29 11.3 N 13 13 7 7 1009.8 1009.5 0.0
23/06:00pm 32.4 30.3 9.8 25 12.9 NNW 11 13 6 7 1009.6 1009.3 0.0
23/05:30pm 33.3 30.5 7.1 19 14.4 NNW 11 15 6 8 1009.3 1009.0 0.0
23/05:00pm 33.9 31.7 6.4 18 15.0 NNW 7 11 4 6 1009.2 1008.9 0.0
23/04:30pm 33.7 31.1 6.3 18 14.9 NNW 9 13 5 7 1009.1 1008.8 0.0
23/04:00pm 34.4 31.7 5.5 16 15.6 NNE 9 13 5 7 1009.0 1008.7 0.0
23/03:30pm 34.2 30.9 4.7 16 15.7 N 11 19 6 10 1009.2 1008.9 0.0
23/03:00pm 33.2 30.8 5.3 17 14.9 SSW 7 15 4 8 1009.4 1009.1 0.0
23/02:30pm 33.5 30.8 5.6 17 15.0 NNE 9 13 5 7 1009.7 1009.4 0.0
23/02:00pm 32.1 29.5 4.3 17 14.5 SE 7 11 4 6 1010.3 1010.0 0.0
23/01:30pm 31.8 28.9 4.4 17 14.3 S 9 13 5 7 1010.7 1010.4 0.0
23/01:00pm 31.9 28.1 3.9 17 14.5 SE 13 19 7 10 1011.2 1010.9 0.0
23/12:30pm 32.0 28.5 3.7 16 14.6 SSE 11 19 6 10 1011.7 1011.4 0.0
23/12:00pm 31.3 27.2 2.5 16 14.5 ESE 13 19 7 10 1012.0 1011.7 0.0
23/11:30am 31.4 26.2 2.4 16 14.6 SE 19 24 10 13 1012.6 1012.3 0.0
23/11:00am 30.5 25.3 2.2 16 14.1 ESE 19 28 10 15 1012.8 1012.5 0.0
23/10:30am 30.2 24.8 2.3 17 13.9 ESE 20 28 11 15 1012.7 1012.4 0.0
23/10:00am 29.8 23.4 1.0 15 14.0 ESE 24 35 13 19 1012.6 1012.3 0.0
23/09:30am 28.8 23.2 1.5 17 13.3 ESE 20 26 11 14 1012.8 1012.5 0.0
23/09:00am 26.8 23.5 6.4 27 10.7 S 13 17 7 9 1012.7 1012.4 0.0
23/08:30am 25.9 24.4 8.3 32 9.5 S 6 11 3 6 1012.6 1012.3 0.0
23/08:00am 23.2 22.5 11.9 49 6.4 S 7 11 4 6 1012.5 1012.2 0.0
23/07:30am 20.7 21.7 14.4 67 3.7 E 2 6 1 3 1012.3 1012.0 0.0
23/07:00am 19.7 20.4 13.4 67 3.6 SW 2 7 1 4 1012.2 1011.9 0.0
23/06:30am 20.2 20.3 12.8 62 4.2 SW 4 7 2 4 1011.9 1011.6 0.0
23/06:00am 20.0 19.8 13.6 66 3.7 W 7 11 4 6 1011.7 1011.4 0.0
23/05:30am 21.4 22.3 13.0 58 4.8 CALM 0 0 0 0 1011.3 1011.0 0.0
23/05:00am 20.7 20.5 13.0 61 4.4 NW 6 7 3 4 1011.1 1010.8 0.0
23/04:30am 24.4 22.5 9.1 37 8.3 S 9 13 5 7 1010.9 1010.6 0.0
23/04:00am 23.3 22.0 11.4 47 6.7 ESE 9 13 5 7 1010.8 1010.5 0.0
23/03:30am 21.9 22.1 14.2 61 4.5 SSE 6 9 3 5 1011.1 1010.8 0.0
23/03:00am 21.6 23.1 14.6 64 4.1 CALM 0 0 0 0 1011.2 1010.9 0.0
23/02:30am 22.6 23.4 14.9 61 4.6 SSW 4 6 2 3 1011.4 1011.1 0.0
23/02:00am 21.7 22.6 16.2 71 3.3 W 6 7 3 4 1011.5 1011.2 0.0
23/01:30am 22.4 24.0 14.8 62 4.5 CALM 0 0 0 0 1011.8 1011.5 0.0
23/01:00am 23.7 24.4 14.6 56 5.4 E 4 7 2 4 1012.1 1011.8 0.0
23/12:30am 23.4 24.9 14.6 57 5.2 CALM 0 4 0 2 1012.5 1012.2 0.0
23/12:00am 22.6 25.0 16.9 70 3.5 CALM 0 7 0 4 1012.6 1012.3 0.0
 
Date/Time
CST
Temp
°C
App
Temp
°C
Dew
Point
Rel
Hum
%
Delta-T
°C
Wind Press
QNH
hPa
Press
MSL
hPa
Rain
since 9 am
mm
Dir
 
Spd
km/h
Gust
km/h
Spd
kts
Gust
kts
22/11:30pm 23.6 24.9 15.1 59 5.1 S 2 6 1 3 1012.6 1012.3 0.0
22/11:00pm 24.6 25.7 15.5 57 5.5 S 4 6 2 3 1012.8 1012.5 0.0
22/10:30pm 24.3 26.1 15.5 58 5.3 CALM 0 0 0 0 1013.0 1012.7 0.0
22/10:00pm 24.0 25.9 15.7 59 5.0 CALM 0 0 0 0 1013.0 1012.7 0.0
22/09:30pm 25.2 26.6 14.3 50 6.5 CALM 0 0 0 0 1013.0 1012.7 0.0
22/09:00pm 26.0 27.7 15.3 51 6.5 CALM 0 0 0 0 1013.1 1012.8 0.0
22/08:30pm 26.1 27.8 17.1 57 5.6 SW 4 7 2 4 1013.0 1012.7 0.0
22/08:00pm 25.4 27.3 15.7 55 5.9 CALM 0 2 0 1 1012.8 1012.5 0.0
22/07:30pm 26.6 27.6 14.2 46 7.4 S 2 6 1 3 1012.6 1012.3 0.0
22/07:00pm 27.5 26.9 12.2 38 8.9 S 7 7 4 4 1012.3 1012.0 0.0
22/06:30pm 30.7 28.5 6.2 21 13.1 S 7 13 4 7 1012.0 1011.7 0.0
22/06:00pm 31.7 29.3 5.2 19 14.0 S 7 11 4 6 1011.7 1011.4 0.0
22/05:30pm 32.1 29.6 5.0 18 14.3 SW 7 13 4 7 1011.5 1011.2 0.0
22/05:00pm 31.7 29.3 5.2 19 14.0 SSW 7 9 4 5 1011.2 1010.9 0.0
22/04:30pm 31.7 28.7 4.2 17 14.3 S 9 13 5 7 1011.0 1010.7 0.0
22/04:00pm 32.3 29.8 4.8 17 14.5 SE 7 13 4 7 1011.0 1010.7 0.0
22/03:30pm 32.4 28.8 3.2 16 15.0 SE 11 15 6 8 1011.1 1010.8 0.0
22/03:00pm 32.0 28.5 1.0 14 15.3 SSE 9 17 5 9 1011.1 1010.8 0.0
22/02:30pm 31.2 27.8 1.9 15 14.6 SSE 9 20 5 11 1011.4 1011.1 0.0
22/02:00pm 31.4 27.1 0.8 14 15.0 SE 13 17 7 9 1011.6 1011.3 0.0
22/01:30pm 31.1 26.1 -0.9 12 15.2 E 15 24 8 13 1012.0 1011.7 0.0
22/01:00pm 30.6 25.3 -0.9 13 14.9 ESE 17 24 9 13 1012.6 1012.3 0.0

Other Formats:

Comma delimited format used in spreadsheet applications
http://www.bom.gov.au/fwo/IDD60801/IDD60801.94216.axf

JavaScript Object Notation format (JSON) in row-major order
http://www.bom.gov.au/fwo/IDD60801/IDD60801.94216.json